National Weather Service United States Department of Commerce

This is an experimental project that is derived straight from the NWS Billings aviation grids. 
There is no human interaction or quality control with this forecast and amendments are not issued.

 

TAF
K3U4 311710Z 3118/0118 24011G19KT P6SM SCT250
     FM312000 27014KT P6SM FEW250
     FM312300 26009KT P6SM FEW250
     FM010000 26006KT P6SM FEW250
     FM010600 16006KT P6SM BKN100
     FM010800 17007KT P6SM BKN110
      AMD NOT SKED. UNFL=

TAF
KBHK 311710Z 3118/0118 26015G26KT P6SM SCT250
     FM312000 27016G27KT P6SM FEW250
     FM312300 28014G23KT P6SM FEW250
     FM010100 27010KT P6SM SCT250
     FM010500 24007KT P6SM SCT100
     FM011200 25010G20KT P6SM FEW120
      AMD NOT SKED. UNFL=

TAF
K6S0 311710Z 3118/0118 26029G44KT 1 1/2SM BLSN SCT035
     FM312100 26027G41KT 5SM BLSN SCT070
     FM312200 26027G39KT P6SM BLSN BKN070
     FM010500 25030G43KT 3SM BLSN BKN060
     FM010700 25029G45KT P6SM BLSN SCT060 WS002/26045KT
     FM011300 26026G38KT P6SM BLSN BKN250
      AMD NOT SKED. UNFL=

TAF
K6S1 311710Z 3118/0118 18018G29KT P6SM SCT250
     FM010200 19018KT P6SM BKN100
     FM010700 19018G26KT P6SM BKN100
     FM011000 19018G27KT P6SM SCT100
     FM011400 20016KT P6SM SCT250
     FM011700 18016G24KT P6SM BKN250
      AMD NOT SKED. UNFL=

TAF
K00F 311710Z 3118/0118 24013KT P6SM FEW250
     FM312000 27014G22KT P6SM FEW250
     FM312300 27009KT P6SM FEW250
     FM010500 24008KT P6SM SCT100
     FM010700 23009KT P6SM BKN100
     FM011000 22010KT P6SM SCT110
      AMD NOT SKED. UNFL=

TAF
KM46 311710Z 3118/0118 26016G27KT P6SM SCT250
     FM312000 27017G28KT P6SM FEW250
     FM312300 26011G24KT P6SM FEW250
     FM010000 26009KT P6SM FEW250
     FM010500 24009KT P6SM BKN100
     FM010900 25010G18KT P6SM SCT120 WS005/28040KT
      AMD NOT SKED. UNFL=

TAF
K6S3 311710Z 3118/0118 20008KT P6SM SCT250
     FM312000 23011G19KT P6SM SCT250
     FM010000 21009KT P6SM SCT110
     FM010200 20008KT P6SM BKN100
     FM010400 20006KT P6SM SCT100
     FM011700 22007KT P6SM SCT250
      AMD NOT SKED. UNFL=

TAF
K97M 311710Z 3118/0118 25014G26KT P6SM FEW250
     FM312000 26017G28KT P6SM FEW250
     FM312300 27014G23KT P6SM FEW250
     FM010200 26010KT P6SM FEW250
     FM010600 23009KT P6SM FEW090
     FM011600 25011G19KT P6SM FEW250
      AMD NOT SKED. UNFL=

TAF
K1S3 311710Z 3118/0118 26015G26KT P6SM SCT250
     FM312200 27012G23KT P6SM FEW250
     FM010000 26008KT P6SM FEW250
     FM010400 24007KT P6SM BKN100
     FM010700 24008KT P6SM SCT090 WS003/27040KT
     FM011700 26012G22KT P6SM FEW250
      AMD NOT SKED. UNFL=

TAF
K5U7 311710Z 3118/0118 23027G41KT P6SM BLSN SCT250
     FM312200 23022G34KT P6SM BLSN FEW250
     FM312300 22020G33KT P6SM BLSN FEW250
     FM010300 22020G31KT P6SM BKN100
     FM010500 22021G30KT P6SM SCT110
     FM011100 23022G33KT P6SM BKN250
      AMD NOT SKED. UNFL=

TAF
K29S 311710Z 3118/0118 17009KT P6SM BKN060
     FM312200 17010KT P6SM SCT070
     FM312300 17011KT P6SM BKN060
     FM010500 10010KT 5SM BR BKN045
     FM010700 07008KT 3SM BR BKN035
     FM010900 06007KT P6SM BKN045
      AMD NOT SKED. UNFL=

TAF
K00U 311710Z 3118/0118 24011KT P6SM SCT250
     FM311900 25012G20KT P6SM SCT250
     FM312000 26014KT P6SM SCT250
     FM312300 25010KT P6SM SCT250
     FM010200 24008KT P6SM BKN100
     FM010700 24008KT P6SM SCT110
      AMD NOT SKED. UNFL=

TAF
KHWQ 311710Z 3118/0118 27028G41KT P6SM BLSN SCT250
     FM312200 28025G36KT P6SM BLSN SCT250
     FM010000 27025G35KT P6SM BLSN BKN100
     FM010400 27028G42KT P6SM BLSN SCT100 WS003/27050KT
     FM010800 28032G48KT P6SM BLSN FEW110 WS008/27045KT
     FM011400 27027G40KT P6SM BLSN SCT250 WS006/27045KT
      AMD NOT SKED. UNFL=

TAF
K6U7 311710Z 3118/0118 25016G28KT P6SM SCT250
     FM312000 26015G26KT P6SM SCT250
     FM312100 27014G23KT P6SM SCT250
     FM312300 25010G19KT P6SM SCT250
     FM010300 24010KT P6SM BKN100
     FM010700 24013G22KT P6SM SCT100
      AMD NOT SKED. UNFL=

TAF
K6S8 311710Z 3118/0118 23022G32KT P6SM BLSN SCT250
     FM312100 23018G27KT P6SM SCT250
     FM312300 22018KT P6SM SCT250
     FM010200 23017KT P6SM BKN100
     FM010500 23016G24KT P6SM SCT110
     FM011100 23018G26KT P6SM SCT250
      AMD NOT SKED. UNFL=

TAF
K80S 311710Z 3118/0118 26017G29KT P6SM BKN250
     FM312100 27018G27KT P6SM SCT250
     FM312300 27013G24KT P6SM BKN250
     FM010000 27011KT P6SM BKN120
     FM010200 25008KT P6SM BKN110
     FM011400 25008KT P6SM BKN250 WS003/27040KT
      AMD NOT SKED. UNFL=

TAF
KRED 311710Z 3118/0118 16008KT P6SM FEW250
     FM010400 18008KT P6SM BKN090
     FM010600 18008KT P6SM SCT070
     FM010700 18008KT P6SM BKN070
     FM011100 19010KT P6SM SCT090 WS003/29035KT
     FM011200 18010KT P6SM BKN110 WS005/29035KT
      AMD NOT SKED. UNFL=

TAF
KRPX 311710Z 3118/0118 25020G30KT P6SM BKN250
     FM312000 26018G26KT P6SM SCT250
     FM312300 26013G23KT P6SM SCT250
     FM010200 25013G21KT P6SM OVC110
     FM010500 24013G21KT P6SM BKN110 WS005/27040KT
     FM011700 25015G26KT P6SM SCT250 WS003/27045KT
      AMD NOT SKED. UNFL=

TAF
K8U0 311710Z 3118/0118 26017G30KT P6SM BKN250
     FM312000 27018G28KT P6SM SCT250
     FM312300 26014G22KT P6SM BKN250
     FM010200 24009KT P6SM BKN100
     FM010800 26008KT P6SM SCT100 WS003/27040KT
     FM011600 25009KT P6SM BKN250
      AMD NOT SKED. UNFL=

TAF
K9U1 311710Z 3118/0118 26013G21KT P6SM BKN060
     FM010200 22014G22KT P6SM BKN060 WS003/25035KT
     FM010400 21014G23KT 5SM BR OVC045 WS003/25035KT
     FM010900 20013KT P6SM SCT060
     FM011100 26012KT P6SM SCT070
     FM011600 21010KT P6SM SCT090 WS003/25035KT
      AMD NOT SKED. UNFL=